sensor_id;sensor_type;location;lat;lon;timestamp;pressure;altitude;pressure_sealevel;temperature;humidity
70521;BME280;58442;52.716;23.560;2022-12-19T00:01:30;103796.70;;;-11.30;71.24
70521;BME280;58442;52.716;23.560;2022-12-19T00:03:32;103801.26;;;-11.32;71.32
70521;BME280;58442;52.716;23.560;2022-12-19T00:05:36;103799.70;;;-11.35;71.23
70521;BME280;58442;52.716;23.560;2022-12-19T00:07:38;103798.17;;;-11.37;71.33
70521;BME280;58442;52.716;23.560;2022-12-19T00:09:39;103803.55;;;-11.39;71.27
70521;BME280;58442;52.716;23.560;2022-12-19T00:11:41;103805.58;;;-11.42;71.17
70521;BME280;58442;52.716;23.560;2022-12-19T00:13:42;103799.87;;;-11.47;71.10
70521;BME280;58442;52.716;23.560;2022-12-19T00:15:54;103803.73;;;-11.51;71.23
70521;BME280;58442;52.716;23.560;2022-12-19T00:17:55;103804.78;;;-11.54;71.31
70521;BME280;58442;52.716;23.560;2022-12-19T00:19:56;103801.33;;;-11.54;71.33
70521;BME280;58442;52.716;23.560;2022-12-19T00:21:57;103798.70;;;-11.54;71.30
70521;BME280;58442;52.716;23.560;2022-12-19T00:23:58;103792.76;;;-11.56;71.15
70521;BME280;58442;52.716;23.560;2022-12-19T00:28:12;103806.64;;;-11.66;71.13
70521;BME280;58442;52.716;23.560;2022-12-19T00:30:13;103803.42;;;-11.69;71.25
70521;BME280;58442;52.716;23.560;2022-12-19T00:32:14;103800.93;;;-11.71;71.28
70521;BME280;58442;52.716;23.560;2022-12-19T00:34:15;103797.46;;;-11.71;71.29
70521;BME280;58442;52.716;23.560;2022-12-19T00:36:19;103799.26;;;-11.72;71.31
70521;BME280;58442;52.716;23.560;2022-12-19T00:38:20;103796.64;;;-11.72;71.34
70521;BME280;58442;52.716;23.560;2022-12-19T00:40:21;103793.29;;;-11.74;71.26
70521;BME280;58442;52.716;23.560;2022-12-19T00:42:22;103789.26;;;-11.78;71.30
70521;BME280;58442;52.716;23.560;2022-12-19T00:44:23;103793.10;;;-11.82;71.38
70521;BME280;58442;52.716;23.560;2022-12-19T00:46:35;103789.78;;;-11.84;71.46
70521;BME280;58442;52.716;23.560;2022-12-19T00:48:37;103788.95;;;-11.84;71.53
70521;BME280;58442;52.716;23.560;2022-12-19T00:50:38;103785.51;;;-11.85;71.53
70521;BME280;58442;52.716;23.560;2022-12-19T00:52:39;103784.67;;;-11.85;71.52
70521;BME280;58442;52.716;23.560;2022-12-19T00:54:51;103787.41;;;-11.87;71.41
70521;BME280;58442;52.716;23.560;2022-12-19T00:56:52;103791.95;;;-11.89;71.28
70521;BME280;58442;52.716;23.560;2022-12-19T00:58:53;103789.80;;;-11.95;71.24
70521;BME280;58442;52.716;23.560;2022-12-19T01:00:54;103790.06;;;-11.98;71.33
70521;BME280;58442;52.716;23.560;2022-12-19T01:03:06;103788.27;;;-11.98;71.34
70521;BME280;58442;52.716;23.560;2022-12-19T01:05:07;103788.41;;;-11.99;71.28
70521;BME280;58442;52.716;23.560;2022-12-19T01:07:09;103784.12;;;-12.00;71.25
70521;BME280;58442;52.716;23.560;2022-12-19T01:09:11;103784.22;;;-12.02;71.28
70521;BME280;58442;52.716;23.560;2022-12-19T01:11:22;103781.73;;;-12.03;71.23
70521;BME280;58442;52.716;23.560;2022-12-19T01:13:43;103781.98;;;-12.06;71.35
70521;BME280;58442;52.716;23.560;2022-12-19T01:15:44;103772.33;;;-12.06;71.28
70521;BME280;58442;52.716;23.560;2022-12-19T01:17:46;103782.81;;;-12.06;71.21
70521;BME280;58442;52.716;23.560;2022-12-19T01:19:48;103788.06;;;-12.06;71.24
70521;BME280;58442;52.716;23.560;2022-12-19T01:21:58;103790.67;;;-12.06;71.23
70521;BME280;58442;52.716;23.560;2022-12-19T01:24:01;103788.19;;;-12.07;71.22
70521;BME280;58442;52.716;23.560;2022-12-19T01:26:02;103800.44;;;-12.08;71.23
70521;BME280;58442;52.716;23.560;2022-12-19T01:28:07;103794.74;;;-12.13;71.06
70521;BME280;58442;52.716;23.560;2022-12-19T01:30:14;103793.18;;;-12.16;71.14
70521;BME280;58442;52.716;23.560;2022-12-19T01:32:15;103800.09;;;-12.15;71.18
70521;BME280;58442;52.716;23.560;2022-12-19T01:34:16;103794.84;;;-12.15;71.28
70521;BME280;58442;52.716;23.560;2022-12-19T01:36:17;103796.62;;;-12.15;71.28
70521;BME280;58442;52.716;23.560;2022-12-19T01:38:19;103794.84;;;-12.15;71.31
70521;BME280;58442;52.716;23.560;2022-12-19T01:40:21;103793.18;;;-12.16;71.25
70521;BME280;58442;52.716;23.560;2022-12-19T01:42:22;103797.46;;;-12.15;71.28
70521;BME280;58442;52.716;23.560;2022-12-19T01:44:25;103793.18;;;-12.16;71.23
70521;BME280;58442;52.716;23.560;2022-12-19T01:46:54;103793.18;;;-12.16;71.30
70521;BME280;58442;52.716;23.560;2022-12-19T01:48:42;103807.12;;;-12.15;71.35
70521;BME280;58442;52.716;23.560;2022-12-19T01:50:50;103804.48;;;-12.15;71.25
70521;BME280;58442;52.716;23.560;2022-12-19T01:52:53;103811.52;;;-12.16;71.30
70521;BME280;58442;52.716;23.560;2022-12-19T01:55:06;103817.73;;;-12.17;71.31
70521;BME280;58442;52.716;23.560;2022-12-19T01:57:11;103810.70;;;-12.16;71.30
70521;BME280;58442;52.716;23.560;2022-12-19T01:59:19;103811.65;;;-12.17;71.24
70521;BME280;58442;52.716;23.560;2022-12-19T02:01:23;103807.36;;;-12.18;71.29
70521;BME280;58442;52.716;23.560;2022-12-19T02:03:27;103803.92;;;-12.19;71.38
70521;BME280;58442;52.716;23.560;2022-12-19T02:05:30;103810.81;;;-12.18;71.46
70521;BME280;58442;52.716;23.560;2022-12-19T02:07:32;103807.24;;;-12.17;71.44
70521;BME280;58442;52.716;23.560;2022-12-19T02:09:35;103803.66;;;-12.16;71.45
70521;BME280;58442;52.716;23.560;2022-12-19T02:11:37;103800.09;;;-12.15;71.45
70521;BME280;58442;52.716;23.560;2022-12-19T02:13:38;103800.09;;;-12.15;71.56
70521;BME280;58442;52.716;23.560;2022-12-19T02:15:52;103796.27;;;-12.10;71.58
70521;BME280;58442;52.716;23.560;2022-12-19T02:24:46;103801.61;;;-12.01;71.57
70521;BME280;58442;52.716;23.560;2022-12-19T02:27:01;103794.35;;;-11.97;71.69
70521;BME280;58442;52.716;23.560;2022-12-19T02:31:25;103803.13;;;-11.87;71.84
70521;BME280;58442;52.716;23.560;2022-12-19T02:33:38;103810.50;;;-11.81;71.80
70521;BME280;58442;52.716;23.560;2022-12-19T02:35:52;103797.01;;;-11.76;71.79
70521;BME280;58442;52.716;23.560;2022-12-19T02:38:05;103799.13;;;-11.70;71.81
70521;BME280;58442;52.716;23.560;2022-12-19T02:40:22;103801.39;;;-11.66;71.86
70521;BME280;58442;52.716;23.560;2022-12-19T02:42:29;103803.63;;;-11.61;71.82
70521;BME280;58442;52.716;23.560;2022-12-19T02:44:39;103806.01;;;-11.58;71.84
70521;BME280;58442;52.716;23.560;2022-12-19T02:46:42;103799.54;;;-11.54;71.84
70521;BME280;58442;52.716;23.560;2022-12-19T02:48:45;103789.63;;;-11.50;71.82
70521;BME280;58442;52.716;23.560;2022-12-19T02:50:47;103795.35;;;-11.45;71.85
70521;BME280;58442;52.716;23.560;2022-12-19T02:52:48;103798.55;;;-11.42;71.80
70521;BME280;58442;52.716;23.560;2022-12-19T02:57:12;103795.14;;;-11.33;71.83
70521;BME280;58442;52.716;23.560;2022-12-19T03:03:55;103785.20;;;-11.18;71.72
70521;BME280;58442;52.716;23.560;2022-12-19T03:06:13;103788.76;;;-11.19;71.62
70521;BME280;58442;52.716;23.560;2022-12-19T03:13:16;103782.35;;;-11.05;71.80
70521;BME280;58442;52.716;23.560;2022-12-19T03:15:20;103783.63;;;-10.99;71.74
70521;BME280;58442;52.716;23.560;2022-12-19T03:17:21;103788.74;;;-10.98;71.61
70521;BME280;58442;52.716;23.560;2022-12-19T03:19:23;103795.80;;;-10.98;71.54
70521;BME280;58442;52.716;23.560;2022-12-19T03:21:31;103796.77;;;-10.99;71.63
70521;BME280;58442;52.716;23.560;2022-12-19T03:23:34;103798.33;;;-10.97;71.73
70521;BME280;58442;52.716;23.560;2022-12-19T03:25:36;103794.59;;;-10.94;71.72
70521;BME280;58442;52.716;23.560;2022-12-19T03:27:38;103796.94;;;-10.91;71.66
70521;BME280;58442;52.716;23.560;2022-12-19T03:29:47;103791.59;;;-10.90;71.67
70521;BME280;58442;52.716;23.560;2022-12-19T03:31:51;103787.98;;;-10.89;71.63
70521;BME280;58442;52.716;23.560;2022-12-19T03:34:02;103783.44;;;-10.87;71.64
70521;BME280;58442;52.716;23.560;2022-12-19T03:36:08;103784.27;;;-10.86;71.68
70521;BME280;58442;52.716;23.560;2022-12-19T03:38:12;103781.40;;;-10.83;71.73
70521;BME280;58442;52.716;23.560;2022-12-19T03:40:21;103780.98;;;-10.79;71.67
70521;BME280;58442;52.716;23.560;2022-12-19T03:42:26;103775.48;;;-10.76;71.67
70521;BME280;58442;52.716;23.560;2022-12-19T03:44:41;103778.66;;;-10.72;71.70
70521;BME280;58442;52.716;23.560;2022-12-19T03:46:49;103780.08;;;-10.68;71.64
70521;BME280;58442;52.716;23.560;2022-12-19T03:48:53;103781.75;;;-10.67;71.55
70521;BME280;58442;52.716;23.560;2022-12-19T03:53:20;103771.09;;;-10.65;71.59
70521;BME280;58442;52.716;23.560;2022-12-19T03:57:40;103769.46;;;-10.57;71.62
70521;BME280;58442;52.716;23.560;2022-12-19T03:59:50;103769.21;;;-10.54;71.54
70521;BME280;58442;52.716;23.560;2022-12-19T04:01:58;103776.13;;;-10.53;71.54
70521;BME280;58442;52.716;23.560;2022-12-19T04:04:01;103780.55;;;-10.53;71.49
70521;BME280;58442;52.716;23.560;2022-12-19T04:06:04;103772.96;;;-10.56;71.50
70521;BME280;58442;52.716;23.560;2022-12-19T04:08:07;103782.49;;;-10.55;71.73
70521;BME280;58442;52.716;23.560;2022-12-19T04:10:16;103781.14;;;-10.50;71.83
70521;BME280;58442;52.716;23.560;2022-12-19T04:12:29;103773.67;;;-10.44;71.80
70521;BME280;58442;52.716;23.560;2022-12-19T04:14:35;103767.05;;;-10.39;71.75
70521;BME280;58442;52.716;23.560;2022-12-19T04:16:44;103764.04;;;-10.34;71.63
70521;BME280;58442;52.716;23.560;2022-12-19T04:18:54;103764.87;;;-10.34;71.59
70521;BME280;58442;52.716;23.560;2022-12-19T04:21:14;103771.78;;;-10.33;71.62
70521;BME280;58442;52.716;23.560;2022-12-19T04:23:27;103767.10;;;-10.29;71.69
70521;BME280;58442;52.716;23.560;2022-12-19T04:25:38;103766.82;;;-10.26;71.72
70521;BME280;58442;52.716;23.560;2022-12-19T04:27:45;103753.25;;;-10.22;71.71
70521;BME280;58442;52.716;23.560;2022-12-19T04:29:51;103759.74;;;-10.16;71.71
70521;BME280;58442;52.716;23.560;2022-12-19T04:31:55;103763.78;;;-10.12;71.65
70521;BME280;58442;52.716;23.560;2022-12-19T04:34:06;103762.13;;;-10.13;71.67
70521;BME280;58442;52.716;23.560;2022-12-19T04:36:08;103761.01;;;-10.10;71.75
70521;BME280;58442;52.716;23.560;2022-12-19T04:38:10;103755.49;;;-10.07;71.82
70521;BME280;58442;52.716;23.560;2022-12-19T04:40:12;103757.58;;;-10.01;71.86
70521;BME280;58442;52.716;23.560;2022-12-19T04:42:21;103757.01;;;-9.95;71.85
70521;BME280;58442;52.716;23.560;2022-12-19T04:44:23;103750.38;;;-9.89;71.85
70521;BME280;58442;52.716;23.560;2022-12-19T04:46:24;103757.73;;;-9.83;71.86
70521;BME280;58442;52.716;23.560;2022-12-19T04:48:25;103753.73;;;-9.78;71.82
70521;BME280;58442;52.716;23.560;2022-12-19T04:50:37;103756.77;;;-9.73;71.81
70521;BME280;58442;52.716;23.560;2022-12-19T04:52:38;103758.03;;;-9.67;71.87
70521;BME280;58442;52.716;23.560;2022-12-19T04:54:39;103755.93;;;-9.63;71.87
70521;BME280;58442;52.716;23.560;2022-12-19T04:56:40;103758.85;;;-9.57;71.86
70521;BME280;58442;52.716;23.560;2022-12-19T04:58:41;103761.07;;;-9.52;71.85
70521;BME280;58442;52.716;23.560;2022-12-19T05:00:42;103760.63;;;-9.48;71.83
70521;BME280;58442;52.716;23.560;2022-12-19T05:02:43;103756.09;;;-9.46;71.77
70521;BME280;58442;52.716;23.560;2022-12-19T05:04:47;103755.12;;;-9.45;71.74
70521;BME280;58442;52.716;23.560;2022-12-19T05:06:48;103753.16;;;-9.43;71.77
70521;BME280;58442;52.716;23.560;2022-12-19T05:08:49;103754.67;;;-9.40;71.77
70521;BME280;58442;52.716;23.560;2022-12-19T05:10:50;103755.23;;;-9.37;71.70
70521;BME280;58442;52.716;23.560;2022-12-19T05:13:02;103759.27;;;-9.32;71.69
70521;BME280;58442;52.716;23.560;2022-12-19T05:15:04;103766.04;;;-9.30;71.53
70521;BME280;58442;52.716;23.560;2022-12-19T05:17:05;103758.29;;;-9.31;71.46
70521;BME280;58442;52.716;23.560;2022-12-19T05:19:06;103758.55;;;-9.34;71.45
70521;BME280;58442;52.716;23.560;2022-12-19T05:21:17;103756.05;;;-9.36;71.61
70521;BME280;58442;52.716;23.560;2022-12-19T05:23:18;103754.95;;;-9.33;71.70
70521;BME280;58442;52.716;23.560;2022-12-19T05:25:20;103761.59;;;-9.29;71.67
70521;BME280;58442;52.716;23.560;2022-12-19T05:27:21;103759.53;;;-9.26;71.66
70521;BME280;58442;52.716;23.560;2022-12-19T05:29:32;103763.67;;;-9.23;71.52
70521;BME280;58442;52.716;23.560;2022-12-19T05:31:34;103757.58;;;-9.24;71.49
70521;BME280;58442;52.716;23.560;2022-12-19T05:33:35;103758.55;;;-9.25;71.46
70521;BME280;58442;52.716;23.560;2022-12-19T05:35:37;103752.45;;;-9.25;71.59
70521;BME280;58442;52.716;23.560;2022-12-19T05:37:48;103752.99;;;-9.22;71.70
70521;BME280;58442;52.716;23.560;2022-12-19T05:39:49;103747.46;;;-9.19;71.66
70521;BME280;58442;52.716;23.560;2022-12-19T05:41:50;103746.34;;;-9.16;71.64
70521;BME280;58442;52.716;23.560;2022-12-19T05:43:55;103742.71;;;-9.15;71.53
70521;BME280;58442;52.716;23.560;2022-12-19T05:46:05;103740.09;;;-9.15;71.52
70521;BME280;58442;52.716;23.560;2022-12-19T05:48:06;103739.11;;;-9.14;71.50
70521;BME280;58442;52.716;23.560;2022-12-19T05:50:07;103731.20;;;-9.14;71.51
70521;BME280;58442;52.716;23.560;2022-12-19T05:52:12;103733.58;;;-9.11;71.53
70521;BME280;58442;52.716;23.560;2022-12-19T05:54:18;103736.89;;;-9.09;71.52
70521;BME280;58442;52.716;23.560;2022-12-19T05:56:21;103728.02;;;-9.08;71.47
70521;BME280;58442;52.716;23.560;2022-12-19T05:58:22;103732.30;;;-9.07;71.43
70521;BME280;58442;52.716;23.560;2022-12-19T06:00:23;103723.57;;;-9.07;71.35
70521;BME280;58442;52.716;23.560;2022-12-19T06:02:34;103731.47;;;-9.07;71.37
70521;BME280;58442;52.716;23.560;2022-12-19T06:04:37;103734.94;;;-9.07;71.41
70521;BME280;58442;52.716;23.560;2022-12-19T06:06:38;103728.84;;;-9.07;71.45
70521;BME280;58442;52.716;23.560;2022-12-19T06:08:40;103732.18;;;-9.05;71.48
70521;BME280;58442;52.716;23.560;2022-12-19T06:10:49;103734.51;;;-9.02;71.52
70521;BME280;58442;52.716;23.560;2022-12-19T06:12:50;103736.85;;;-8.99;71.56
70521;BME280;58442;52.716;23.560;2022-12-19T06:14:51;103737.41;;;-8.96;71.59
70521;BME280;58442;52.716;23.560;2022-12-19T06:16:52;103735.30;;;-8.92;71.62
70521;BME280;58442;52.716;23.560;2022-12-19T06:18:53;103728.78;;;-8.88;71.71
70521;BME280;58442;52.716;23.560;2022-12-19T06:21:09;103735.45;;;-8.84;71.78
70521;BME280;58442;52.716;23.560;2022-12-19T06:23:06;103729.71;;;-8.79;71.83
70521;BME280;58442;52.716;23.560;2022-12-19T06:25:08;103726.66;;;-8.75;71.83
70521;BME280;58442;52.716;23.560;2022-12-19T06:27:09;103731.20;;;-8.67;71.81
70521;BME280;58442;52.716;23.560;2022-12-19T06:29:10;103740.49;;;-8.63;71.78
70521;BME280;58442;52.716;23.560;2022-12-19T06:31:12;103733.94;;;-8.59;71.75
70521;BME280;58442;52.716;23.560;2022-12-19T06:33:15;103730.88;;;-8.55;71.69
70521;BME280;58442;52.716;23.560;2022-12-19T06:35:16;103728.08;;;-8.53;71.63
70521;BME280;58442;52.716;23.560;2022-12-19T06:37:17;103739.30;;;-8.51;71.61
70521;BME280;58442;52.716;23.560;2022-12-19T06:39:18;103732.92;;;-8.48;71.55
70521;BME280;58442;52.716;23.560;2022-12-19T06:41:30;103729.98;;;-8.45;71.54
70521;BME280;58442;52.716;23.560;2022-12-19T06:43:51;103730.81;;;-8.45;71.54
70521;BME280;58442;52.716;23.560;2022-12-19T06:45:53;103732.34;;;-8.42;71.56
70521;BME280;58442;52.716;23.560;2022-12-19T06:47:54;103734.67;;;-8.39;71.57
70521;BME280;58442;52.716;23.560;2022-12-19T06:49:56;103736.20;;;-8.37;71.60
70521;BME280;58442;52.716;23.560;2022-12-19T06:52:07;103731.41;;;-8.33;71.61
70521;BME280;58442;52.716;23.560;2022-12-19T06:54:10;103740.84;;;-8.31;71.63
70521;BME280;58442;52.716;23.560;2022-12-19T06:56:13;103744.02;;;-8.27;71.61
70521;BME280;58442;52.716;23.560;2022-12-19T06:58:14;103742.88;;;-8.24;71.59
70521;BME280;58442;52.716;23.560;2022-12-19T07:00:22;103741.78;;;-8.22;71.56
70521;BME280;58442;52.716;23.560;2022-12-19T07:02:27;103739.49;;;-8.17;71.59
70521;BME280;58442;52.716;23.560;2022-12-19T07:04:33;103742.02;;;-8.15;71.58
70521;BME280;58442;52.716;23.560;2022-12-19T07:06:35;103737.26;;;-8.12;71.52
70521;BME280;58442;52.716;23.560;2022-12-19T07:08:37;103731.70;;;-8.09;71.48
70521;BME280;58442;52.716;23.560;2022-12-19T07:10:38;103732.52;;;-8.08;71.41
70521;BME280;58442;52.716;23.560;2022-12-19T07:12:39;103732.36;;;-8.07;71.51
70521;BME280;58442;52.716;23.560;2022-12-19T07:14:40;103731.23;;;-8.04;71.50
70521;BME280;58442;52.716;23.560;2022-12-19T07:16:42;103737.05;;;-8.01;71.45
70521;BME280;58442;52.716;23.560;2022-12-19T07:18:43;103728.30;;;-8.01;71.41
70521;BME280;58442;52.716;23.560;2022-12-19T07:20:44;103736.89;;;-7.99;71.40
70521;BME280;58442;52.716;23.560;2022-12-19T07:22:48;103736.73;;;-7.97;71.44
70521;BME280;58442;52.716;23.560;2022-12-19T07:24:49;103734.92;;;-7.97;71.53
70521;BME280;58442;52.716;23.560;2022-12-19T07:26:50;103738.94;;;-7.93;71.50
70521;BME280;58442;52.716;23.560;2022-12-19T07:28:52;103724.48;;;-7.89;71.50
70521;BME280;58442;52.716;23.560;2022-12-19T07:31:03;103728.45;;;-7.85;71.50
70521;BME280;58442;52.716;23.560;2022-12-19T07:33:04;103725.37;;;-7.80;71.43
70521;BME280;58442;52.716;23.560;2022-12-19T07:35:09;103725.89;;;-7.77;71.36
70521;BME280;58442;52.716;23.560;2022-12-19T07:37:10;103727.25;;;-7.73;71.30
70521;BME280;58442;52.716;23.560;2022-12-19T07:39:18;103726.93;;;-7.69;71.28
70521;BME280;58442;52.716;23.560;2022-12-19T07:41:19;103731.94;;;-7.66;71.26
70521;BME280;58442;52.716;23.560;2022-12-19T07:43:20;103726.33;;;-7.63;71.17
70521;BME280;58442;52.716;23.560;2022-12-19T07:45:21;103726.71;;;-7.58;71.08
70521;BME280;58442;52.716;23.560;2022-12-19T07:47:22;103731.55;;;-7.54;71.04
70521;BME280;58442;52.716;23.560;2022-12-19T07:49:23;103730.55;;;-7.53;70.96
70521;BME280;58442;52.716;23.560;2022-12-19T07:51:24;103729.56;;;-7.52;70.94
70521;BME280;58442;52.716;23.560;2022-12-19T07:53:27;103724.95;;;-7.50;70.86
70521;BME280;58442;52.716;23.560;2022-12-19T07:55:29;103722.31;;;-7.50;70.77
70521;BME280;58442;52.716;23.560;2022-12-19T07:57:30;103716.21;;;-7.50;70.79
70521;BME280;58442;52.716;23.560;2022-12-19T07:59:31;103723.01;;;-7.48;70.82
70521;BME280;58442;52.716;23.560;2022-12-19T08:01:43;103729.13;;;-7.47;70.82
70521;BME280;58442;52.716;23.560;2022-12-19T08:03:44;103728.14;;;-7.46;70.82
70521;BME280;58442;52.716;23.560;2022-12-19T08:05:45;103730.45;;;-7.43;70.77
70521;BME280;58442;52.716;23.560;2022-12-19T08:07:46;103722.25;;;-7.40;70.72
70521;BME280;58442;52.716;23.560;2022-12-19T08:09:47;103702.77;;;-7.39;70.67
70521;BME280;58442;52.716;23.560;2022-12-19T08:11:48;103708.42;;;-7.34;70.63
70521;BME280;58442;52.716;23.560;2022-12-19T08:13:49;103700.34;;;-7.32;70.56
70521;BME280;58442;52.716;23.560;2022-12-19T08:15:52;103703.97;;;-7.33;70.44
70521;BME280;58442;52.716;23.560;2022-12-19T08:17:54;103706.07;;;-7.37;70.46
70521;BME280;58442;52.716;23.560;2022-12-19T08:19:55;103698.14;;;-7.37;70.50
70521;BME280;58442;52.716;23.560;2022-12-19T08:21:57;103707.72;;;-7.36;70.48
70521;BME280;58442;52.716;23.560;2022-12-19T08:24:08;103713.17;;;-7.37;70.46
70521;BME280;58442;52.716;23.560;2022-12-19T08:26:17;103712.18;;;-7.36;70.42
70521;BME280;58442;52.716;23.560;2022-12-19T08:28:24;103709.38;;;-7.35;70.41
70521;BME280;58442;52.716;23.560;2022-12-19T08:30:26;103704.26;;;-7.36;70.41
70521;BME280;58442;52.716;23.560;2022-12-19T08:32:29;103706.73;;;-7.35;70.47
70521;BME280;58442;52.716;23.560;2022-12-19T08:34:30;103710.09;;;-7.33;70.46
70521;BME280;58442;52.716;23.560;2022-12-19T08:36:32;103703.81;;;-7.32;70.37
70521;BME280;58442;52.716;23.560;2022-12-19T08:38:34;103699.18;;;-7.30;70.30
70521;BME280;58442;52.716;23.560;2022-12-19T08:40:51;103693.23;;;-7.32;70.28
70521;BME280;58442;52.716;23.560;2022-12-19T08:42:52;103695.34;;;-7.35;70.27
70521;BME280;58442;52.716;23.560;2022-12-19T08:44:54;103694.36;;;-7.34;70.43
70521;BME280;58442;52.716;23.560;2022-12-19T08:46:55;103688.94;;;-7.33;70.45
70521;BME280;58442;52.716;23.560;2022-12-19T08:49:00;103674.74;;;-7.32;70.44
70521;BME280;58442;52.716;23.560;2022-12-19T08:51:04;103682.66;;;-7.32;70.38
70521;BME280;58442;52.716;23.560;2022-12-19T08:53:06;103673.09;;;-7.33;70.28
70521;BME280;58442;52.716;23.560;2022-12-19T08:55:07;103670.08;;;-7.38;70.31
70521;BME280;58442;52.716;23.560;2022-12-19T08:57:16;103677.34;;;-7.40;70.36
70521;BME280;58442;52.716;23.560;2022-12-19T08:59:17;103670.53;;;-7.42;70.39
70521;BME280;58442;52.716;23.560;2022-12-19T09:01:19;103665.41;;;-7.44;70.39
70521;BME280;58442;52.716;23.560;2022-12-19T09:03:25;103663.10;;;-7.47;70.42
70521;BME280;58442;52.716;23.560;2022-12-19T09:05:31;103661.41;;;-7.48;70.42
70521;BME280;58442;52.716;23.560;2022-12-19T09:07:32;103650.35;;;-7.52;70.62
70521;BME280;58442;52.716;23.560;2022-12-19T09:09:36;103649.52;;;-7.52;70.50
70521;BME280;58442;52.716;23.560;2022-12-19T09:11:37;103653.15;;;-7.53;70.56
70521;BME280;58442;52.716;23.560;2022-12-19T09:13:47;103648.85;;;-7.54;70.38
70521;BME280;58442;52.716;23.560;2022-12-19T09:15:48;103656.46;;;-7.51;70.60
70521;BME280;58442;52.716;23.560;2022-12-19T09:17:49;103652.83;;;-7.50;70.55
70521;BME280;58442;52.716;23.560;2022-12-19T09:19:50;103652.00;;;-7.51;70.52
70521;BME280;58442;52.716;23.560;2022-12-19T09:22:01;103649.52;;;-7.52;70.53
70521;BME280;58442;52.716;23.560;2022-12-19T09:24:03;103646.22;;;-7.54;70.51
70521;BME280;58442;52.716;23.560;2022-12-19T09:26:08;103635.64;;;-7.54;70.49
70521;BME280;58442;52.716;23.560;2022-12-19T09:28:09;103638.59;;;-7.57;70.50
70521;BME280;58442;52.716;23.560;2022-12-19T09:31:34;103622.90;;;-7.59;70.56
70521;BME280;58442;52.716;23.560;2022-12-19T09:33:35;103611.68;;;-7.61;70.57
70521;BME280;58442;52.716;23.560;2022-12-19T09:35:37;103617.91;;;-7.62;70.65
70521;BME280;58442;52.716;23.560;2022-12-19T09:37:38;103608.22;;;-7.61;70.73
70521;BME280;58442;52.716;23.560;2022-12-19T09:39:40;103607.05;;;-7.59;70.85
70521;BME280;58442;52.716;23.560;2022-12-19T09:41:53;103610.07;;;-7.54;70.87
70521;BME280;58442;52.716;23.560;2022-12-19T09:44:06;103609.75;;;-7.51;70.79
70521;BME280;58442;52.716;23.560;2022-12-19T09:46:17;103605.29;;;-7.50;70.77
70521;BME280;58442;52.716;23.560;2022-12-19T09:48:27;103592.75;;;-7.48;70.79
70521;BME280;58442;52.716;23.560;2022-12-19T09:50:43;103591.92;;;-7.49;70.74
70521;BME280;58442;52.716;23.560;2022-12-19T09:52:42;103583.05;;;-7.48;70.79
70521;BME280;58442;52.716;23.560;2022-12-19T09:57:03;103588.16;;;-7.46;70.84
70521;BME280;58442;52.716;23.560;2022-12-19T10:01:34;103572.98;;;-7.44;70.92
70521;BME280;58442;52.716;23.560;2022-12-19T10:03:41;103577.97;;;-7.41;70.94
70521;BME280;58442;52.716;23.560;2022-12-19T10:07:57;103571.72;;;-7.32;70.93
70521;BME280;58442;52.716;23.560;2022-12-19T10:10:01;103558.35;;;-7.30;70.90
70521;BME280;58442;52.716;23.560;2022-12-19T10:12:21;103552.76;;;-7.27;70.95
70521;BME280;58442;52.716;23.560;2022-12-19T10:21:45;103543.71;;;-7.17;70.97
70521;BME280;58442;52.716;23.560;2022-12-19T10:24:08;103539.08;;;-7.14;71.00
70521;BME280;58442;52.716;23.560;2022-12-19T10:26:23;103540.60;;;-7.12;71.08
70521;BME280;58442;52.716;23.560;2022-12-19T10:35:15;103521.48;;;-6.98;71.21
70521;BME280;58442;52.716;23.560;2022-12-19T10:37:24;103507.75;;;-6.93;71.23
70521;BME280;58442;52.716;23.560;2022-12-19T10:40:19;103510.25;;;-6.92;71.23
70521;BME280;58442;52.716;23.560;2022-12-19T10:41:54;103499.17;;;-6.87;71.33
70521;BME280;58442;52.716;23.560;2022-12-19T10:44:04;103497.87;;;-6.83;71.31
70521;BME280;58442;52.716;23.560;2022-12-19T10:46:16;103500.87;;;-6.78;71.33
70521;BME280;58442;52.716;23.560;2022-12-19T10:48:20;103497.70;;;-6.73;71.31
70521;BME280;58442;52.716;23.560;2022-12-19T10:50:24;103492.93;;;-6.70;71.31
70521;BME280;58442;52.716;23.560;2022-12-19T10:54:54;103492.76;;;-6.60;71.23
70521;BME280;58442;52.716;23.560;2022-12-19T10:59:16;103485.67;;;-6.51;71.23
70521;BME280;58442;52.716;23.560;2022-12-19T11:03:32;103468.45;;;-6.47;71.05
70521;BME280;58442;52.716;23.560;2022-12-19T11:05:45;103469.12;;;-6.45;71.11
70521;BME280;58442;52.716;23.560;2022-12-19T11:08:01;103471.27;;;-6.41;71.19
70521;BME280;58442;52.716;23.560;2022-12-19T11:12:16;103481.02;;;-6.33;71.19
70521;BME280;58442;52.716;23.560;2022-12-19T11:14:23;103474.41;;;-6.29;71.21
70521;BME280;58442;52.716;23.560;2022-12-19T11:16:33;103473.07;;;-6.25;71.17
70521;BME280;58442;52.716;23.560;2022-12-19T11:18:43;103471.75;;;-6.21;71.14
70521;BME280;58442;52.716;23.560;2022-12-19T11:20:55;103468.75;;;-6.18;71.15
70521;BME280;58442;52.716;23.560;2022-12-19T11:22:58;103474.38;;;-6.13;71.12
70521;BME280;58442;52.716;23.560;2022-12-19T11:25:03;103467.12;;;-6.11;71.06
70521;BME280;58442;52.716;23.560;2022-12-19T11:31:34;103460.80;;;-6.01;71.05
70521;BME280;58442;52.716;23.560;2022-12-19T11:33:36;103459.80;;;-6.00;70.98
70521;BME280;58442;52.716;23.560;2022-12-19T11:35:44;103457.80;;;-5.98;70.96
70521;BME280;58442;52.716;23.560;2022-12-19T11:40:09;103457.66;;;-5.97;70.86
70521;BME280;58442;52.716;23.560;2022-12-19T11:44:43;103440.60;;;-5.94;70.87
70521;BME280;58442;52.716;23.560;2022-12-19T11:48:58;103437.94;;;-5.94;70.76
70521;BME280;58442;52.716;23.560;2022-12-19T11:53:22;103433.97;;;-5.98;70.73